createdAt,value
2022-11-16T00:07:43.459Z,100
2022-11-16T00:17:44.291Z,100
2022-11-16T00:27:45.029Z,100
2022-11-16T00:37:46.021Z,100
2022-11-16T00:47:46.678Z,100
2022-11-16T00:57:47.128Z,100
2022-11-16T01:07:47.389Z,100
2022-11-16T01:17:48.327Z,100
2022-11-16T01:27:49.382Z,100
2022-11-16T01:37:49.664Z,100
2022-11-16T01:47:49.857Z,100
2022-11-16T01:57:50.558Z,100
2022-11-16T02:17:50.798Z,100
2022-11-16T02:27:51.538Z,100
2022-11-16T02:37:51.831Z,100
2022-11-16T02:47:52.057Z,100
2022-11-16T02:57:52.514Z,100
2022-11-16T03:07:52.735Z,100
2022-11-16T03:27:53.399Z,100
2022-11-16T03:37:53.827Z,100
2022-11-16T03:47:54.827Z,100
2022-11-16T03:57:55.636Z,100
2022-11-16T04:07:56.352Z,100
2022-11-16T04:17:57.251Z,100
2022-11-16T04:27:57.712Z,100
2022-11-16T04:47:58.284Z,100
2022-11-16T04:57:58.787Z,100
2022-11-16T05:07:59.663Z,100
2022-11-16T05:18:00.273Z,100
2022-11-16T05:28:01.164Z,100
2022-11-16T05:38:02.188Z,100
2022-11-16T05:48:03.174Z,100
2022-11-16T05:58:03.913Z,100
2022-11-16T06:08:03.990Z,100
2022-11-16T06:18:04.329Z,100
2022-11-16T06:28:07.840Z,100
2022-11-16T06:38:05.609Z,100
2022-11-16T06:48:05.919Z,100
2022-11-16T06:58:06.099Z,100
2022-11-16T07:08:06.718Z,100
2022-11-16T07:18:06.931Z,100
2022-11-16T07:28:07.609Z,100
2022-11-16T07:38:08.097Z,100
2022-11-16T07:48:09.125Z,100
2022-11-16T07:58:09.672Z,100
2022-11-16T08:08:10.187Z,100
2022-11-16T08:18:10.248Z,100
2022-11-16T08:28:10.555Z,100
2022-11-16T08:38:11.079Z,99
2022-11-16T08:48:11.897Z,98
2022-11-16T08:58:11.976Z,98
2022-11-16T09:18:13.607Z,96
2022-11-16T09:28:13.899Z,95
2022-11-16T09:38:19.689Z,93
2022-11-16T09:48:14.931Z,91
2022-11-16T10:08:16.155Z,88
2022-11-16T10:18:17.123Z,88
2022-11-16T10:28:18.103Z,88
2022-11-16T10:38:18.402Z,88
2022-11-16T10:48:18.539Z,87
2022-11-16T10:58:19.530Z,88
2022-11-16T11:08:20.340Z,87
2022-11-16T11:18:20.855Z,87
2022-11-16T11:28:21.556Z,87
2022-11-16T11:38:22.477Z,87
2022-11-16T11:48:23.498Z,86
2022-11-16T11:58:23.613Z,85
2022-11-16T12:08:24.477Z,86
2022-11-16T12:18:25.487Z,86
2022-11-16T12:28:26.029Z,85
2022-11-16T12:38:26.896Z,85
2022-11-16T12:48:26.927Z,86
2022-11-16T12:58:27.355Z,86
2022-11-16T13:18:27.965Z,86
2022-11-16T13:28:33.266Z,86
2022-11-16T13:38:28.610Z,86
2022-11-16T13:58:29.939Z,87
2022-11-16T14:18:30.860Z,87
2022-11-16T14:28:30.995Z,87
2022-11-16T14:38:31.530Z,87
2022-11-16T15:18:33.032Z,87
2022-11-16T15:28:33.784Z,87
2022-11-16T15:58:36.493Z,87
2022-11-16T16:08:37.013Z,87
2022-11-16T16:08:58.900Z,87
2022-11-16T16:38:43.196Z,87
2022-11-16T16:48:44.838Z,88
2022-11-16T16:58:44.639Z,87
2022-11-16T17:18:46.434Z,87
2022-11-16T17:28:46.627Z,87
2022-11-16T17:38:47.020Z,88
2022-11-16T17:58:47.818Z,88
2022-11-16T18:18:48.454Z,90
2022-11-16T18:38:49.754Z,92
2022-11-16T19:18:51.627Z,92
2022-11-16T19:38:52.295Z,93
2022-11-16T19:48:53.264Z,94
2022-11-16T20:18:54.049Z,96
2022-11-16T20:38:55.585Z,96
2022-11-16T20:48:55.795Z,96
2022-11-16T20:58:56.498Z,96
2022-11-16T21:08:57.451Z,95
2022-11-16T21:18:57.613Z,95
2022-11-16T21:28:57.932Z,94
2022-11-16T21:38:58.116Z,95
2022-11-16T21:48:59.062Z,95
2022-11-16T21:59:00.000Z,94
2022-11-16T22:09:00.840Z,94
2022-11-16T22:19:01.322Z,94
2022-11-16T22:29:01.446Z,94
2022-11-16T22:39:02.384Z,94
2022-11-16T22:49:02.540Z,94
2022-11-16T22:59:03.062Z,93
2022-11-16T23:09:03.361Z,93
2022-11-16T23:19:04.115Z,93
2022-11-16T23:29:05.029Z,93
2022-11-16T23:39:05.792Z,93
2022-11-16T23:49:06.533Z,92
2022-11-16T23:59:07.510Z,92
